Lake Lenore, Canada
Current Conditions -  °F | °C
As of 1:00 PM on Saturday 25 Oct 2014 (Local Time) from CYPA Reporting Station
Broken Clouds Broken Clouds  
Wind Chill: 37°   Ceiling: 25000
Heat Index: 43°   Visibility: 15mi
Dew Point: 30°   Wind: 10mph
Humidity: 61%   Direction: 330°NNW
Pressure: 30.01"   Gusts: NA
Location:  52.4°N, 104.98°W
Report Text: CYPA 251900Z 33009KT 15SM FEW029 FEW160 BKN250 06/M01 A3001 RMK SC1AS1CI7 SC TR AS TR SLP179
Loading
Personal Weather Stations






























Interactive Weather Map
Tropical Storm Tracking
New forecast layout! Learn more

10-Day Weather Forecast

Advertisements
Track Severe Weather on mobile